Time;durP1;ratioP1;P1;durP2;ratioP2;P2;SDS_P1;SDS_P2;PMS_P1;PMS_P2;Temp;Humidity;BMP_temperature;BMP_pressure;BME280_temperature;BME280_humidity;BME280_pressure;Samples;Min_cycle;Max_cycle;Signal;HPM_P1;HPM_P2
2020/12/16 00:00:00;;;;;;;29.35;16.13;;;;;;;;;;5077227;28;20032;-63
2020/12/16 00:02:26;;;;;;;34.47;17.70;;;;;;;;;;5072594;28;20032;-63
2020/12/16 00:04:52;;;;;;;30.85;16.60;;;;;;;;;;5064810;28;20016;-62
2020/12/16 00:07:20;;;;;;;32.35;17.20;;;;;;;;;;5063645;28;20050;-63
2020/12/16 00:09:46;;;;;;;30.90;17.23;;;;;;;;;;5076325;28;20028;-63
2020/12/16 00:12:12;;;;;;;33.40;16.50;;;;;;;;;;5066003;28;20497;-63
2020/12/16 00:14:38;;;;;;;26.75;14.93;;;;;;;;;;5081311;28;20026;-63
2020/12/16 00:17:04;;;;;;;27.85;15.82;;;;;;;;;;5088094;28;20420;-63
2020/12/16 00:19:30;;;;;;;24.85;15.10;;;;;;;;;;5067983;28;20051;-63
2020/12/16 00:22:00;;;;;;;27.67;16.23;;;;;;;;;;5071976;28;20024;-63
2020/12/16 00:24:26;;;;;;;30.83;16.55;;;;;;;;;;5075608;28;20016;-63
2020/12/16 00:26:52;;;;;;;30.23;17.48;;;;;;;;;;5083406;28;20028;-63
2020/12/16 00:29:19;;;;;;;30.70;15.50;;;;;;;;;;5085393;28;20036;-63
2020/12/16 00:31:45;;;;;;;27.85;16.13;;;;;;;;;;5081561;28;20035;-63
2020/12/16 00:34:11;;;;;;;29.50;16.80;;;;;;;;;;5057113;28;20373;-63
2020/12/16 00:36:37;;;;;;;32.75;16.30;;;;;;;;;;5085606;28;20120;-63
2020/12/16 00:39:04;;;;;;;31.63;16.60;;;;;;;;;;5077713;28;20064;-63
2020/12/16 00:41:31;;;;;;;29.50;16.55;;;;;;;;;;5076467;28;20034;-63
2020/12/16 00:43:57;;;;;;;30.10;16.48;;;;;;;;;;5086994;28;20078;-63
2020/12/16 00:46:23;;;;;;;29.15;16.40;;;;;;;;;;5076574;28;20067;-63
2020/12/16 00:48:49;;;;;;;27.77;15.75;;;;;;;;;;5058609;28;20016;-63
2020/12/16 00:51:15;;;;;;;28.17;15.80;;;;;;;;;;5073280;28;20043;-63
2020/12/16 00:53:41;;;;;;;29.10;16.42;;;;;;;;;;5078949;28;20524;-63
2020/12/16 00:56:07;;;;;;;29.95;16.60;;;;;;;;;;5084734;28;20039;-62
2020/12/16 00:58:33;;;;;;;27.02;15.90;;;;;;;;;;5065579;28;20033;-63
2020/12/16 01:00:59;;;;;;;26.38;15.07;;;;;;;;;;5073488;28;20021;-62
2020/12/16 01:03:25;;;;;;;24.40;15.05;;;;;;;;;;5060211;28;20195;-63
2020/12/16 01:05:51;;;;;;;26.35;15.40;;;;;;;;;;5078728;28;20029;-62
2020/12/16 01:08:17;;;;;;;26.50;15.88;;;;;;;;;;5070551;28;20402;-63
2020/12/16 01:10:43;;;;;;;29.75;16.33;;;;;;;;;;5062698;28;20482;-63
2020/12/16 01:13:09;;;;;;;32.28;17.27;;;;;;;;;;5070354;28;20099;-63
2020/12/16 01:15:35;;;;;;;35.28;17.63;;;;;;;;;;5072193;28;20024;-63
2020/12/16 01:18:01;;;;;;;29.48;16.65;;;;;;;;;;5071364;28;20074;-63
2020/12/16 01:20:27;;;;;;;31.08;16.20;;;;;;;;;;5068782;28;20024;-63
2020/12/16 01:22:53;;;;;;;28.13;16.02;;;;;;;;;;5067967;28;20124;-63
2020/12/16 01:25:19;;;;;;;33.05;17.27;;;;;;;;;;5071779;28;20008;-62
2020/12/16 01:27:51;;;;;;;30.40;17.08;;;;;;;;;;5082808;28;20024;-63
2020/12/16 01:30:17;;;;;;;32.42;16.60;;;;;;;;;;5060963;28;20110;-63
2020/12/16 01:32:43;;;;;;;30.52;16.00;;;;;;;;;;5069807;28;20025;-63
2020/12/16 01:35:09;;;;;;;29.00;16.73;;;;;;;;;;5082549;28;20040;-63
2020/12/16 01:37:35;;;;;;;29.45;15.85;;;;;;;;;;5069388;28;20036;-63
2020/12/16 01:40:02;;;;;;;32.20;18.13;;;;;;;;;;5080742;28;20046;-63
2020/12/16 01:42:28;;;;;;;30.33;16.50;;;;;;;;;;5077160;28;20077;-63
2020/12/16 01:44:54;;;;;;;28.40;16.23;;;;;;;;;;5068861;28;20429;-63
2020/12/16 01:47:20;;;;;;;26.60;15.80;;;;;;;;;;5064194;28;20408;-63
2020/12/16 01:49:46;;;;;;;30.10;16.17;;;;;;;;;;5070803;28;20378;-63
2020/12/16 01:52:15;;;;;;;28.73;16.63;;;;;;;;;;5082306;28;20031;-63
2020/12/16 01:54:42;;;;;;;30.25;16.50;;;;;;;;;;5075209;28;20032;-63
2020/12/16 01:57:09;;;;;;;31.40;16.33;;;;;;;;;;5078341;28;20025;-63
2020/12/16 01:59:36;;;;;;;28.17;16.15;;;;;;;;;;5070311;28;20032;-63
2020/12/16 02:02:03;;;;;;;29.80;16.75;;;;;;;;;;5080560;28;20518;-63
2020/12/16 02:04:34;;;;;;;30.60;16.38;;;;;;;;;;5066030;28;20147;-63
2020/12/16 02:07:01;;;;;;;29.67;16.27;;;;;;;;;;5065965;28;20028;-63
2020/12/16 02:09:27;;;;;;;29.63;16.23;;;;;;;;;;5082803;28;20028;-63
2020/12/16 02:11:53;;;;;;;27.75;15.90;;;;;;;;;;5078937;28;20040;-63
2020/12/16 02:14:19;;;;;;;33.53;17.48;;;;;;;;;;5069711;28;20023;-63
2020/12/16 02:16:45;;;;;;;36.30;19.02;;;;;;;;;;5079134;28;20031;-63
2020/12/16 02:19:11;;;;;;;29.55;16.20;;;;;;;;;;5080442;28;20028;-63
2020/12/16 02:21:38;;;;;;;30.85;16.42;;;;;;;;;;5075896;28;20023;-63
2020/12/16 02:24:05;;;;;;;31.17;17.85;;;;;;;;;;5063126;28;20032;-63
2020/12/16 02:26:41;;;;;;;32.35;16.08;;;;;;;;;;5079527;28;20028;-63
2020/12/16 02:29:08;;;;;;;32.30;18.27;;;;;;;;;;5086878;28;20028;-63
2020/12/16 02:31:35;;;;;;;33.38;17.20;;;;;;;;;;5082587;28;20035;-63
2020/12/16 02:34:01;;;;;;;33.35;17.33;;;;;;;;;;5071301;28;20108;-63
2020/12/16 02:36:27;;;;;;;30.35;17.25;;;;;;;;;;5054854;28;20085;-63
2020/12/16 02:38:54;;;;;;;36.50;18.70;;;;;;;;;;5076259;28;20057;-63
2020/12/16 02:41:20;;;;;;;32.80;17.90;;;;;;;;;;5060324;28;20383;-63
2020/12/16 02:43:46;;;;;;;33.90;18.38;;;;;;;;;;5060471;28;20139;-63
2020/12/16 02:46:12;;;;;;;35.75;18.90;;;;;;;;;;5072287;28;20024;-63
2020/12/16 02:48:38;;;;;;;21.63;12.60;;;;;;;;;;5067341;28;20452;-63
2020/12/16 02:51:04;;;;;;;32.67;18.10;;;;;;;;;;5077056;28;20060;-62
2020/12/16 02:53:30;;;;;;;32.65;17.80;;;;;;;;;;5075128;28;20516;-62
2020/12/16 02:55:56;;;;;;;35.88;18.63;;;;;;;;;;5053392;28;20363;-62
2020/12/16 02:58:23;;;;;;;31.08;17.85;;;;;;;;;;5070264;28;20506;-62
2020/12/16 03:00:49;;;;;;;29.48;17.23;;;;;;;;;;5064253;28;20024;-62
2020/12/16 03:03:15;;;;;;;31.55;16.90;;;;;;;;;;5056837;28;20309;-63
2020/12/16 03:05:41;;;;;;;29.73;17.02;;;;;;;;;;5079422;28;20036;-63
2020/12/16 03:08:09;;;;;;;30.20;17.42;;;;;;;;;;5074563;28;20054;-63
2020/12/16 03:10:35;;;;;;;32.40;17.80;;;;;;;;;;5077654;28;20413;-63
2020/12/16 03:13:01;;;;;;;30.85;17.23;;;;;;;;;;5071315;28;20052;-62
2020/12/16 03:15:27;;;;;;;29.88;17.40;;;;;;;;;;5049849;28;20709;-62
2020/12/16 03:17:53;;;;;;;35.75;16.85;;;;;;;;;;5059634;28;20112;-63
2020/12/16 03:20:19;;;;;;;28.98;16.65;;;;;;;;;;5058898;28;20743;-63
2020/12/16 03:22:45;;;;;;;30.35;16.73;;;;;;;;;;5086002;28;20097;-62
2020/12/16 03:25:11;;;;;;;28.63;16.98;;;;;;;;;;5062666;28;20032;-62
2020/12/16 03:27:40;;;;;;;35.10;17.38;;;;;;;;;;5072872;28;20177;-62
2020/12/16 03:30:07;;;;;;;31.48;17.20;;;;;;;;;;5061994;28;20028;-62
2020/12/16 03:32:33;;;;;;;30.95;16.23;;;;;;;;;;5066785;28;20043;-63
2020/12/16 03:34:59;;;;;;;31.77;18.15;;;;;;;;;;5066095;28;20035;-63
2020/12/16 03:37:25;;;;;;;32.55;17.92;;;;;;;;;;5080168;28;20792;-62
2020/12/16 03:39:51;;;;;;;33.47;18.27;;;;;;;;;;5068983;28;20519;-62
2020/12/16 03:42:17;;;;;;;30.73;16.48;;;;;;;;;;5080886;28;20032;-62
2020/12/16 03:44:43;;;;;;;32.20;17.45;;;;;;;;;;5055456;28;20040;-63
2020/12/16 03:47:09;;;;;;;36.63;17.65;;;;;;;;;;5069482;28;20031;-63
2020/12/16 03:49:35;;;;;;;30.58;16.90;;;;;;;;;;5073604;28;20024;-63
2020/12/16 03:52:01;;;;;;;30.77;16.65;;;;;;;;;;5063643;28;20051;-62
2020/12/16 03:54:27;;;;;;;30.85;17.52;;;;;;;;;;5075144;28;20383;-62
2020/12/16 03:56:53;;;;;;;37.47;19.05;;;;;;;;;;5089398;28;20028;-63
2020/12/16 03:59:19;;;;;;;30.48;17.42;;;;;;;;;;5073016;28;20056;-63
2020/12/16 04:01:45;;;;;;;29.30;16.73;;;;;;;;;;5078774;28;20059;-62
2020/12/16 04:04:11;;;;;;;32.75;17.75;;;;;;;;;;5059221;28;20083;-63
2020/12/16 04:06:37;;;;;;;32.70;17.23;;;;;;;;;;5057430;28;20403;-62
2020/12/16 04:09:04;;;;;;;35.63;18.15;;;;;;;;;;5068714;28;20052;-62
2020/12/16 04:11:30;;;;;;;35.17;18.63;;;;;;;;;;5066799;28;20112;-63
2020/12/16 04:13:56;;;;;;;32.75;17.92;;;;;;;;;;5065841;28;20144;-63
2020/12/16 04:16:22;;;;;;;30.20;17.05;;;;;;;;;;5079957;28;20040;-63
2020/12/16 04:18:48;;;;;;;32.78;17.65;;;;;;;;;;5082629;28;20066;-63
2020/12/16 04:21:15;;;;;;;30.75;17.80;;;;;;;;;;5067152;28;20024;-63
2020/12/16 04:23:41;;;;;;;37.53;19.77;;;;;;;;;;5074480;28;20063;-63
2020/12/16 04:26:08;;;;;;;33.25;16.77;;;;;;;;;;5080482;28;20473;-63
2020/12/16 04:28:35;;;;;;;40.38;18.83;;;;;;;;;;5074715;28;20020;-63
2020/12/16 04:31:02;;;;;;;38.47;19.10;;;;;;;;;;5075458;28;20116;-63
2020/12/16 04:33:28;;;;;;;34.35;17.75;;;;;;;;;;5084123;28;20036;-63
2020/12/16 04:35:53;;;;;;;32.10;16.75;;;;;;;;;;5076487;28;20044;-62
2020/12/16 04:38:19;;;;;;;34.22;18.65;;;;;;;;;;5081197;28;20025;-62
2020/12/16 04:40:45;;;;;;;32.60;17.67;;;;;;;;;;5067642;28;20044;-63
2020/12/16 04:43:16;;;;;;;38.20;18.17;;;;;;;;;;5060202;28;20040;-63
2020/12/16 04:45:42;;;;;;;35.97;18.70;;;;;;;;;;5072155;28;20024;-63
2020/12/16 04:48:09;;;;;;;37.35;19.05;;;;;;;;;;5072940;28;20631;-63
2020/12/16 04:50:35;;;;;;;33.20;18.45;;;;;;;;;;5066003;28;20034;-63
2020/12/16 04:53:02;;;;;;;40.25;18.55;;;;;;;;;;5060948;28;20036;-63
2020/12/16 04:55:29;;;;;;;42.42;20.58;;;;;;;;;;5074098;28;20032;-63
2020/12/16 04:57:55;;;;;;;34.58;17.33;;;;;;;;;;5074736;28;20032;-63
2020/12/16 05:00:24;;;;;;;37.92;19.80;;;;;;;;;;5063867;28;20449;-63
2020/12/16 05:03:00;;;;;;;38.78;18.70;;;;;;;;;;5076649;28;20076;-63
2020/12/16 05:05:28;;;;;;;38.45;19.25;;;;;;;;;;5064978;28;20032;-63
2020/12/16 05:07:54;;;;;;;35.58;16.77;;;;;;;;;;5087963;28;20024;-63
2020/12/16 05:10:33;;;;;;;38.10;17.75;;;;;;;;;;5069104;28;20423;-63
2020/12/16 05:13:01;;;;;;;35.53;18.20;;;;;;;;;;5076047;28;20064;-63
2020/12/16 05:15:27;;;;;;;43.53;19.85;;;;;;;;;;5079003;28;20032;-62
2020/12/16 05:18:12;;;;;;;43.08;19.02;;;;;;;;;;5076816;28;20035;-63
2020/12/16 05:20:40;;;;;;;38.30;18.80;;;;;;;;;;5071627;28;20036;-63
2020/12/16 05:23:07;;;;;;;43.92;20.92;;;;;;;;;;5062230;28;20021;-63
2020/12/16 05:25:33;;;;;;;45.63;19.73;;;;;;;;;;5073756;28;20071;-63
2020/12/16 05:28:00;;;;;;;42.40;19.45;;;;;;;;;;5082330;28;20031;-63
2020/12/16 05:30:26;;;;;;;41.92;19.63;;;;;;;;;;5078018;28;20032;-63
2020/12/16 05:32:53;;;;;;;39.95;18.02;;;;;;;;;;5077400;28;20040;-60
2020/12/16 05:35:20;;;;;;;42.67;21.23;;;;;;;;;;5084863;28;20032;-60
2020/12/16 05:37:46;;;;;;;45.08;22.63;;;;;;;;;;5080598;28;20771;-61
2020/12/16 05:40:14;;;;;;;40.15;20.67;;;;;;;;;;5075674;28;20023;-60
2020/12/16 05:42:40;;;;;;;40.38;17.75;;;;;;;;;;5080015;28;20055;-61
2020/12/16 05:45:08;;;;;;;35.25;17.20;;;;;;;;;;5068565;28;20063;-59
2020/12/16 05:47:34;;;;;;;32.47;17.00;;;;;;;;;;5071831;28;20090;-60
2020/12/16 05:50:00;;;;;;;36.25;17.67;;;;;;;;;;5067817;28;20728;-61
2020/12/16 05:52:26;;;;;;;37.70;19.05;;;;;;;;;;5085373;28;20498;-61
2020/12/16 05:54:52;;;;;;;39.88;19.17;;;;;;;;;;5074105;28;20118;-61
2020/12/16 05:57:19;;;;;;;34.65;17.10;;;;;;;;;;5086177;28;20032;-60
2020/12/16 06:00:00;;;;;;;34.50;18.15;;;;;;;;;;5086568;28;20039;-61
2020/12/16 06:02:32;;;;;;;33.58;17.80;;;;;;;;;;5068029;28;20036;-62
2020/12/16 06:04:58;;;;;;;34.53;18.77;;;;;;;;;;5086987;28;20036;-62
2020/12/16 06:07:26;;;;;;;35.95;17.88;;;;;;;;;;5086401;28;20395;-62
2020/12/16 06:09:52;;;;;;;32.35;16.95;;;;;;;;;;5078323;28;20032;-62
2020/12/16 06:12:18;;;;;;;33.05;16.33;;;;;;;;;;5069089;28;20144;-62
2020/12/16 06:14:48;;;;;;;47.45;20.02;;;;;;;;;;5066904;28;20582;-63
2020/12/16 06:17:15;;;;;;;32.20;16.55;;;;;;;;;;5081936;28;20024;-62
2020/12/16 06:19:44;;;;;;;38.13;18.98;;;;;;;;;;5072676;28;20041;-62
2020/12/16 06:22:10;;;;;;;34.15;17.60;;;;;;;;;;5075816;28;20043;-62
2020/12/16 06:24:43;;;;;;;44.08;19.55;;;;;;;;;;5067362;28;20037;-62
2020/12/16 06:27:10;;;;;;;34.15;17.75;;;;;;;;;;5069800;28;20033;-62
2020/12/16 06:29:38;;;;;;;39.50;19.00;;;;;;;;;;5059218;28;20044;-63
2020/12/16 06:32:07;;;;;;;40.60;18.27;;;;;;;;;;5056271;28;20464;-62
2020/12/16 06:34:35;;;;;;;39.08;19.10;;;;;;;;;;5068020;28;20035;-62
2020/12/16 06:37:01;;;;;;;39.33;18.52;;;;;;;;;;5074595;28;20039;-63
2020/12/16 06:39:27;;;;;;;39.33;18.55;;;;;;;;;;5073236;28;20652;-62
2020/12/16 06:41:52;;;;;;;34.17;16.52;;;;;;;;;;5077636;28;20024;-62
2020/12/16 06:44:18;;;;;;;45.40;18.10;;;;;;;;;;5082766;28;20024;-62
2020/12/16 06:46:46;;;;;;;39.92;18.40;;;;;;;;;;5075523;28;20107;-62
2020/12/16 06:49:24;;;;;;;33.58;16.55;;;;;;;;;;5072053;28;20480;-62
2020/12/16 06:51:51;;;;;;;37.88;18.40;;;;;;;;;;5069079;28;20665;-62
2020/12/16 06:54:18;;;;;;;36.20;18.02;;;;;;;;;;5078874;28;20032;-62
2020/12/16 06:56:46;;;;;;;39.22;17.92;;;;;;;;;;5066503;28;20043;-62
2020/12/16 06:59:15;;;;;;;47.28;21.48;;;;;;;;;;5066002;28;20701;-63
2020/12/16 07:01:42;;;;;;;39.28;17.45;;;;;;;;;;5060190;28;20025;-63
2020/12/16 07:04:12;;;;;;;35.88;17.80;;;;;;;;;;5070180;28;20125;-63
2020/12/16 07:06:38;;;;;;;43.17;19.80;;;;;;;;;;5070406;28;20032;-63
2020/12/16 07:09:24;;;;;;;44.45;19.13;;;;;;;;;;5063307;28;20090;-63
2020/12/16 07:11:54;;;;;;;36.28;16.63;;;;;;;;;;5079116;28;20039;-63
2020/12/16 07:14:21;;;;;;;33.05;16.80;;;;;;;;;;5075456;28;20134;-63
2020/12/16 07:16:47;;;;;;;37.38;17.15;;;;;;;;;;5063403;28;20496;-62
2020/12/16 07:19:14;;;;;;;46.28;19.58;;;;;;;;;;5079186;28;20078;-63
2020/12/16 07:21:40;;;;;;;39.20;18.60;;;;;;;;;;5080178;28;20410;-63
2020/12/16 07:24:06;;;;;;;38.78;18.30;;;;;;;;;;5068298;28;20357;-63
2020/12/16 07:26:42;;;;;;;42.10;18.98;;;;;;;;;;5077617;28;20050;-63
2020/12/16 07:29:18;;;;;;;40.65;18.67;;;;;;;;;;5068303;28;20024;-63
2020/12/16 07:31:53;;;;;;;37.22;18.20;;;;;;;;;;5055803;28;20065;-63
2020/12/16 07:34:19;;;;;;;42.28;19.23;;;;;;;;;;5067916;28;20089;-62
2020/12/16 07:36:46;;;;;;;42.28;20.50;;;;;;;;;;5060618;28;20567;-63
2020/12/16 07:39:12;;;;;;;42.58;18.83;;;;;;;;;;5070776;28;20029;-63
2020/12/16 07:41:39;;;;;;;40.97;19.55;;;;;;;;;;5080843;28;20441;-63
2020/12/16 07:44:05;;;;;;;39.28;17.65;;;;;;;;;;5072998;28;20020;-63
2020/12/16 07:46:31;;;;;;;39.17;18.08;;;;;;;;;;5066097;28;20036;-63
2020/12/16 07:48:57;;;;;;;39.75;17.55;;;;;;;;;;5062726;28;20032;-63
2020/12/16 07:51:23;;;;;;;42.15;17.88;;;;;;;;;;5062267;28;20035;-63
2020/12/16 07:53:49;;;;;;;36.00;16.92;;;;;;;;;;5064447;28;20107;-63
2020/12/16 07:56:17;;;;;;;31.80;16.73;;;;;;;;;;5090177;28;20119;-63
2020/12/16 07:58:43;;;;;;;31.40;15.63;;;;;;;;;;5073717;28;20036;-63
2020/12/16 08:01:09;;;;;;;31.33;16.52;;;;;;;;;;5051103;28;20873;-63
2020/12/16 08:03:36;;;;;;;31.25;17.05;;;;;;;;;;5070804;28;20531;-63
2020/12/16 08:06:03;;;;;;;36.53;17.08;;;;;;;;;;5081032;28;20024;-63
2020/12/16 08:08:29;;;;;;;35.95;17.63;;;;;;;;;;5059420;28;20418;-63
2020/12/16 08:10:55;;;;;;;30.75;15.68;;;;;;;;;;5058549;28;20025;-63
2020/12/16 08:13:22;;;;;;;38.53;18.17;;;;;;;;;;5057054;28;20021;-62
2020/12/16 08:15:49;;;;;;;37.15;18.30;;;;;;;;;;5061996;28;20086;-63
2020/12/16 08:18:15;;;;;;;31.05;16.48;;;;;;;;;;5056740;28;20076;-63
2020/12/16 08:20:42;;;;;;;34.47;16.42;;;;;;;;;;5053856;28;20032;-63
2020/12/16 08:23:11;;;;;;;29.75;13.98;;;;;;;;;;5078124;28;20027;-63
2020/12/16 08:25:37;;;;;;;28.25;13.27;;;;;;;;;;5059594;28;20040;-63
2020/12/16 08:28:06;;;;;;;32.88;13.88;;;;;;;;;;5064455;28;20407;-63
2020/12/16 08:30:32;;;;;;;26.70;13.95;;;;;;;;;;5064340;28;20166;-63
2020/12/16 08:33:03;;;;;;;24.25;12.00;;;;;;;;;;5084313;28;20107;-62
2020/12/16 08:35:30;;;;;;;24.13;12.27;;;;;;;;;;5073811;28;20036;-63
2020/12/16 08:38:00;;;;;;;26.55;13.38;;;;;;;;;;5075148;28;20029;-63
2020/12/16 08:40:26;;;;;;;24.27;11.88;;;;;;;;;;5060336;28;20472;-63
2020/12/16 08:42:52;;;;;;;24.25;12.70;;;;;;;;;;5065805;28;20028;-63
2020/12/16 08:45:19;;;;;;;27.17;13.10;;;;;;;;;;5072026;28;20090;-63
2020/12/16 08:47:45;;;;;;;29.02;13.80;;;;;;;;;;5078527;28;20103;-63
2020/12/16 08:50:18;;;;;;;28.73;14.10;;;;;;;;;;5072551;28;20785;-63
2020/12/16 08:52:46;;;;;;;27.73;14.13;;;;;;;;;;5059343;28;20032;-63
2020/12/16 08:55:21;;;;;;;31.63;13.90;;;;;;;;;;5065035;28;20578;-63
2020/12/16 08:57:54;;;;;;;33.55;15.85;;;;;;;;;;5066138;28;20024;-63
2020/12/16 09:00:27;;;;;;;33.58;15.93;;;;;;;;;;5060125;28;20064;-63
2020/12/16 09:03:04;;;;;;;31.75;15.02;;;;;;;;;;5066864;28;20055;-62
2020/12/16 09:05:30;;;;;;;33.13;14.73;;;;;;;;;;5083436;28;20024;-61
2020/12/16 09:08:08;;;;;;;20.77;11.98;;;;;;;;;;5061890;28;20029;-62
2020/12/16 09:10:35;;;;;;;22.20;13.02;;;;;;;;;;5063078;28;20036;-62
2020/12/16 09:13:08;;;;;;;24.15;13.05;;;;;;;;;;5065122;28;20029;-62
2020/12/16 09:15:34;;;;;;;26.75;13.32;;;;;;;;;;5071570;28;20446;-62
2020/12/16 09:18:00;;;;;;;25.27;12.73;;;;;;;;;;5078029;28;20067;-62
2020/12/16 09:20:26;;;;;;;31.40;14.93;;;;;;;;;;5072054;28;20409;-62
2020/12/16 09:22:54;;;;;;;25.50;13.55;;;;;;;;;;5087610;28;20043;-62
2020/12/16 09:25:20;;;;;;;28.63;13.95;;;;;;;;;;5067494;28;20060;-62
2020/12/16 09:27:50;;;;;;;28.38;14.07;;;;;;;;;;5076398;28;20463;-63
2020/12/16 09:30:24;;;;;;;23.02;12.80;;;;;;;;;;5057503;28;20020;-63
2020/12/16 09:32:49;;;;;;;;;;;;;;;;;;5059737;28;20032;-63
2020/12/16 09:35:15;;;;;;;24.38;12.27;;;;;;;;;;5066761;28;19908;-63
2020/12/16 09:37:42;;;;;;;24.83;13.27;;;;;;;;;;5074318;28;20541;-63
2020/12/16 09:40:09;;;;;;;26.60;14.23;;;;;;;;;;5076456;28;20070;-63
2020/12/16 09:42:35;;;;;;;24.20;12.68;;;;;;;;;;5079226;28;20111;-63
2020/12/16 09:45:21;;;;;;;22.73;12.25;;;;;;;;;;5072774;28;20020;-63
2020/12/16 09:47:48;;;;;;;21.20;11.65;;;;;;;;;;5069122;28;20131;-63
2020/12/16 09:50:14;;;;;;;23.48;11.18;;;;;;;;;;5066053;28;20082;-63
2020/12/16 09:52:41;;;;;;;21.17;11.70;;;;;;;;;;5061384;28;20029;-63
2020/12/16 09:55:17;;;;;;;22.55;11.45;;;;;;;;;;5082873;28;20028;-63
2020/12/16 09:57:43;;;;;;;29.90;13.63;;;;;;;;;;5082418;28;20089;-63
2020/12/16 10:00:10;;;;;;;21.90;10.02;;;;;;;;;;5084477;28;20138;-63
2020/12/16 10:02:36;;;;;;;11.63;6.80;;;;;;;;;;5064577;28;20090;-63
2020/12/16 10:05:02;;;;;;;10.98;6.40;;;;;;;;;;5081943;28;20032;-63
2020/12/16 10:07:34;;;;;;;12.20;7.05;;;;;;;;;;5079076;28;20110;-63
2020/12/16 10:10:01;;;;;;;13.27;7.60;;;;;;;;;;5084010;28;20031;-63
2020/12/16 10:12:27;;;;;;;10.02;6.10;;;;;;;;;;5076287;28;20032;-63
2020/12/16 10:14:53;;;;;;;13.68;7.55;;;;;;;;;;5085628;28;20055;-63
2020/12/16 10:17:26;;;;;;;7.97;5.35;;;;;;;;;;5079081;28;20039;-63
2020/12/16 10:19:52;;;;;;;7.95;4.85;;;;;;;;;;5065093;28;20020;-63
2020/12/16 10:22:19;;;;;;;8.90;5.65;;;;;;;;;;5062438;28;20037;-63
2020/12/16 10:24:45;;;;;;;8.93;6.22;;;;;;;;;;5062685;28;20152;-63
2020/12/16 10:27:11;;;;;;;12.13;6.93;;;;;;;;;;5073181;28;20044;-63
2020/12/16 10:29:37;;;;;;;13.00;8.20;;;;;;;;;;5065465;28;20108;-64
2020/12/16 10:32:03;;;;;;;10.98;6.88;;;;;;;;;;5066280;28;20165;-64
2020/12/16 10:34:30;;;;;;;10.77;6.38;;;;;;;;;;5069689;28;20039;-64
2020/12/16 10:36:56;;;;;;;11.82;7.05;;;;;;;;;;5051334;28;20597;-63
2020/12/16 10:39:22;;;;;;;11.68;7.45;;;;;;;;;;5068506;28;20028;-63
2020/12/16 10:41:52;;;;;;;14.02;8.23;;;;;;;;;;5065637;28;20029;-63
2020/12/16 10:44:19;;;;;;;14.25;8.25;;;;;;;;;;5059572;28;20028;-63
2020/12/16 10:46:45;;;;;;;14.43;8.52;;;;;;;;;;5074714;28;20117;-63
2020/12/16 10:49:11;;;;;;;11.00;7.07;;;;;;;;;;5064195;28;20367;-63
2020/12/16 10:51:37;;;;;;;12.52;6.32;;;;;;;;;;5061774;28;20021;-63
2020/12/16 10:54:03;;;;;;;10.25;7.28;;;;;;;;;;5069393;28;20043;-63
2020/12/16 10:56:29;;;;;;;11.52;7.38;;;;;;;;;;5078645;28;20029;-63
2020/12/16 10:58:55;;;;;;;14.20;7.45;;;;;;;;;;5053095;28;20791;-63
2020/12/16 11:01:21;;;;;;;11.45;6.80;;;;;;;;;;5068017;28;20478;-63
2020/12/16 11:03:47;;;;;;;11.50;6.78;;;;;;;;;;5070757;28;20039;-63
2020/12/16 11:06:15;;;;;;;11.25;6.60;;;;;;;;;;5066496;28;20415;-63
2020/12/16 11:08:42;;;;;;;12.80;7.38;;;;;;;;;;5053794;28;20028;-64
2020/12/16 11:11:08;;;;;;;9.65;6.03;;;;;;;;;;5062416;28;20024;-63
2020/12/16 11:13:34;;;;;;;26.52;17.02;;;;;;;;;;5079347;28;20025;-63
2020/12/16 11:16:00;;;;;;;11.27;6.38;;;;;;;;;;5072971;28;20028;-63
2020/12/16 11:18:26;;;;;;;10.18;6.50;;;;;;;;;;5073410;28;20040;-63
2020/12/16 11:20:52;;;;;;;14.02;6.80;;;;;;;;;;5068575;28;20039;-63
2020/12/16 11:23:18;;;;;;;10.75;7.05;;;;;;;;;;5063139;28;20141;-63
2020/12/16 11:25:44;;;;;;;12.75;6.93;;;;;;;;;;5070800;28;20029;-63
2020/12/16 11:28:10;;;;;;;8.98;6.22;;;;;;;;;;5070776;28;20029;-63
2020/12/16 11:30:36;;;;;;;8.10;5.00;;;;;;;;;;5064057;28;20812;-63
2020/12/16 11:33:02;;;;;;;11.25;6.38;;;;;;;;;;5067604;28;20039;-63
2020/12/16 11:35:28;;;;;;;37.20;18.05;;;;;;;;;;5065489;28;20032;-63
2020/12/16 11:37:54;;;;;;;13.07;7.30;;;;;;;;;;5067275;28;20095;-63
2020/12/16 11:40:20;;;;;;;11.40;6.15;;;;;;;;;;5055712;28;20044;-63
2020/12/16 11:42:46;;;;;;;10.27;6.35;;;;;;;;;;5069500;28;20035;-63
2020/12/16 11:45:12;;;;;;;13.57;7.28;;;;;;;;;;5073010;28;20021;-63
2020/12/16 11:47:39;;;;;;;12.77;6.88;;;;;;;;;;5063996;28;20054;-63
2020/12/16 11:50:07;;;;;;;15.05;8.48;;;;;;;;;;5066751;28;20119;-63
2020/12/16 11:52:33;;;;;;;13.90;7.47;;;;;;;;;;5077916;28;20058;-63
2020/12/16 11:54:59;;;;;;;14.95;8.23;;;;;;;;;;5065165;28;20024;-63
2020/12/16 11:57:25;;;;;;;12.68;7.95;;;;;;;;;;5072232;28;20075;-63
2020/12/16 11:59:51;;;;;;;14.02;8.15;;;;;;;;;;5071533;28;20461;-63
2020/12/16 12:02:17;;;;;;;13.63;8.25;;;;;;;;;;5063676;28;20033;-63
2020/12/16 12:04:43;;;;;;;13.82;8.20;;;;;;;;;;5059071;28;20032;-63
2020/12/16 12:07:10;;;;;;;24.52;10.88;;;;;;;;;;5066673;28;20455;-64
2020/12/16 12:09:35;;;;;;;21.63;10.40;;;;;;;;;;5068081;28;20033;-63
2020/12/16 12:12:01;;;;;;;32.17;13.93;;;;;;;;;;5071673;28;20028;-63
2020/12/16 12:14:29;;;;;;;35.33;15.10;;;;;;;;;;5069152;28;20028;-63
2020/12/16 12:16:56;;;;;;;19.73;9.70;;;;;;;;;;5063544;28;20039;-63
2020/12/16 12:19:22;;;;;;;18.35;9.73;;;;;;;;;;5068861;28;20032;-64
2020/12/16 12:21:48;;;;;;;15.85;8.63;;;;;;;;;;5075200;28;20035;-64
2020/12/16 12:24:14;;;;;;;14.80;8.77;;;;;;;;;;5077823;28;20031;-63
2020/12/16 12:26:40;;;;;;;13.55;8.25;;;;;;;;;;5066118;28;20024;-64
2020/12/16 12:29:06;;;;;;;15.35;8.25;;;;;;;;;;5066015;28;20024;-63
2020/12/16 12:31:32;;;;;;;14.23;8.05;;;;;;;;;;5080651;28;20038;-63
2020/12/16 12:33:58;;;;;;;15.43;8.13;;;;;;;;;;5078444;28;20052;-63
2020/12/16 12:36:24;;;;;;;15.38;8.13;;;;;;;;;;5071267;28;20468;-63
2020/12/16 12:38:50;;;;;;;16.48;9.13;;;;;;;;;;5063657;28;20048;-63
2020/12/16 12:41:16;;;;;;;14.90;8.38;;;;;;;;;;5079059;28;20032;-63
2020/12/16 12:43:42;;;;;;;12.10;8.05;;;;;;;;;;5077011;28;20029;-63
2020/12/16 12:46:09;;;;;;;13.43;8.27;;;;;;;;;;5079373;28;20032;-63
2020/12/16 12:48:35;;;;;;;18.90;9.93;;;;;;;;;;5067554;28;20518;-64
2020/12/16 12:51:01;;;;;;;15.10;9.07;;;;;;;;;;5065272;28;20090;-64
2020/12/16 12:53:27;;;;;;;14.52;8.85;;;;;;;;;;5054680;28;20037;-64
2020/12/16 12:55:53;;;;;;;18.05;8.60;;;;;;;;;;5069352;28;20096;-64
2020/12/16 12:58:19;;;;;;;15.63;8.30;;;;;;;;;;5066792;28;20032;-64
2020/12/16 13:00:45;;;;;;;18.77;8.77;;;;;;;;;;5070907;28;20055;-64
2020/12/16 13:03:11;;;;;;;14.73;7.95;;;;;;;;;;5066594;28;20037;-63
2020/12/16 13:05:37;;;;;;;15.25;10.02;;;;;;;;;;5069792;28;20027;-63
2020/12/16 13:08:03;;;;;;;16.73;11.15;;;;;;;;;;5069522;28;20020;-64
2020/12/16 13:10:29;;;;;;;16.27;10.23;;;;;;;;;;5062660;28;20770;-63
2020/12/16 13:12:55;;;;;;;16.92;9.38;;;;;;;;;;5077463;28;20037;-62
2020/12/16 13:15:21;;;;;;;16.08;8.95;;;;;;;;;;5061114;28;20036;-64
2020/12/16 13:17:47;;;;;;;13.15;8.15;;;;;;;;;;5071582;28;20400;-64
2020/12/16 13:20:13;;;;;;;14.98;8.85;;;;;;;;;;5071636;28;20032;-64
2020/12/16 13:22:39;;;;;;;16.00;9.07;;;;;;;;;;5073305;28;20021;-63
2020/12/16 13:25:05;;;;;;;16.55;8.70;;;;;;;;;;5066544;28;20036;-63
2020/12/16 13:27:31;;;;;;;13.75;7.93;;;;;;;;;;5067581;28;20480;-63
2020/12/16 13:29:57;;;;;;;15.82;9.05;;;;;;;;;;5068413;28;20127;-63
2020/12/16 13:32:23;;;;;;;14.82;8.85;;;;;;;;;;5069724;28;20119;-63
2020/12/16 13:34:49;;;;;;;14.90;9.55;;;;;;;;;;5071732;28;20108;-63
2020/12/16 13:37:15;;;;;;;18.10;9.75;;;;;;;;;;5080381;28;20044;-63
2020/12/16 13:39:41;;;;;;;18.23;9.60;;;;;;;;;;5078102;28;20135;-63
2020/12/16 13:42:07;;;;;;;18.75;11.88;;;;;;;;;;5073055;28;20386;-63
2020/12/16 13:44:33;;;;;;;131.85;81.65;;;;;;;;;;5085235;28;20031;-63
2020/12/16 13:46:59;;;;;;;19.05;12.40;;;;;;;;;;5075983;28;20021;-63
2020/12/16 13:49:25;;;;;;;39.10;21.85;;;;;;;;;;5075335;28;20041;-63
2020/12/16 13:51:51;;;;;;;25.60;14.02;;;;;;;;;;5072819;28;20020;-63
2020/12/16 13:54:17;;;;;;;42.85;20.70;;;;;;;;;;5082636;28;20027;-63
2020/12/16 13:56:43;;;;;;;15.43;9.07;;;;;;;;;;5071128;28;20028;-63
2020/12/16 13:59:09;;;;;;;19.58;10.50;;;;;;;;;;5070355;28;20033;-63
2020/12/16 14:01:35;;;;;;;14.68;8.30;;;;;;;;;;5074256;28;20021;-63
2020/12/16 14:04:01;;;;;;;16.40;8.77;;;;;;;;;;5061381;28;20040;-63
2020/12/16 14:06:28;;;;;;;12.25;7.55;;;;;;;;;;5070128;28;20024;-63
2020/12/16 14:08:54;;;;;;;11.23;7.20;;;;;;;;;;5060072;28;20039;-63
2020/12/16 14:11:20;;;;;;;16.63;11.10;;;;;;;;;;5070844;28;20071;-63
2020/12/16 14:13:47;;;;;;;12.32;7.72;;;;;;;;;;5065404;28;20032;-63
2020/12/16 14:16:13;;;;;;;13.90;7.75;;;;;;;;;;5079224;28;20357;-63
2020/12/16 14:18:40;;;;;;;13.65;7.43;;;;;;;;;;5079741;28;20032;-63